Terminal Aerodrome Forecast
Issued by NWS Newport/Morehead City, NC

Home | Current Version | Previous Version | Graphics & Text | Print | Product List | Glossary On
Versions: 1 2 3 4 5 6 7 8 9 10 11 12 13 14 15 16 17 18 19 20 21
709
FTUS42 KMHX 221129
TAFEWN
TAF
KEWN 221129Z 2212/2312 23004KT P6SM FEW090
     FM221500 22011G19KT P6SM SCT050
     FM230000 21007KT P6SM VCSH BKN050
     FM230600 02008KT P6SM VCSH BKN010=

USA.gov is the U.S. government's official web portal to all federal, state and local government web resources and services.